Time;durP1;ratioP1;P1;durP2;ratioP2;P2;SDS_P1;SDS_P2;PMS_P1;PMS_P2;Temp;Humidity;BMP_temperature;BMP_pressure;BME280_temperature;BME280_humidity;BME280_pressure;Samples;Min_cycle;Max_cycle;Signal;HPM_P1;HPM_P2
2023/11/21 00:02:07;;;;;;;0.00;0.00;;;;;;;8.73;100.00;100284.47;5024220;28;20037;-75
2023/11/21 00:04:35;;;;;;;0.00;0.00;;;;;;;8.74;100.00;100288.84;5022506;28;20056;-75
2023/11/21 00:07:01;;;;;;;0.00;0.00;;;;;;;8.88;100.00;100309.16;5055922;28;20055;-75
2023/11/21 00:09:33;;;;;;;0.05;0.05;;;;;;;8.72;100.00;100285.56;5050634;28;20080;-76
2023/11/21 00:12:00;;;;;;;0.00;0.00;;;;;;;8.78;100.00;100316.44;5044438;28;20024;-74
2023/11/21 00:14:25;;;;;;;0.00;0.00;;;;;;;8.54;100.00;100286.72;5029974;28;20908;-75
2023/11/21 00:16:51;;;;;;;0.00;0.00;;;;;;;8.68;100.00;100298.88;5051897;28;20033;-75
2023/11/21 00:19:16;;;;;;;0.00;0.00;;;;;;;8.86;100.00;100316.78;5022944;28;20036;-74
2023/11/21 00:21:45;;;;;;;0.00;0.00;;;;;;;8.93;100.00;100310.31;5021222;28;20078;-75
2023/11/21 00:24:13;;;;;;;0.00;0.00;;;;;;;9.14;100.00;100322.22;5036442;28;20029;-74
2023/11/21 00:26:41;;;;;;;0.00;0.00;;;;;;;9.12;100.00;100308.03;5023608;28;20052;-74
2023/11/21 00:29:09;;;;;;;0.00;0.00;;;;;;;9.17;100.00;100325.25;5035572;28;20033;-74
2023/11/21 00:31:40;;;;;;;0.00;0.00;;;;;;;8.85;100.00;100282.41;5037284;28;20025;-74
2023/11/21 00:34:13;;;;;;;0.00;0.00;;;;;;;8.65;100.00;100279.47;5028725;28;20029;-75
2023/11/21 00:36:38;;;;;;;0.00;0.00;;;;;;;8.69;100.00;100305.16;5020086;28;20110;-74
2023/11/21 00:39:05;;;;;;;0.00;0.00;;;;;;;8.71;100.00;100322.06;5034268;28;20029;-73
2023/11/21 00:41:31;;;;;;;0.00;0.00;;;;;;;8.59;100.00;100307.78;5042882;28;20126;-75
2023/11/21 00:43:57;;;;;;;0.00;0.00;;;;;;;8.69;100.00;100327.78;5042576;28;20029;-74
2023/11/21 00:46:36;;;;;;;0.00;0.00;;;;;;;8.63;100.00;100317.06;5019112;28;20033;-73
2023/11/21 00:49:09;;;;;;;0.00;0.00;;;;;;;8.42;100.00;100300.44;5028882;28;20087;-75
2023/11/21 00:51:37;;;;;;;0.00;0.00;;;;;;;8.67;100.00;100345.47;5042015;28;20025;-74
2023/11/21 00:54:03;;;;;;;0.00;0.00;;;;;;;8.53;100.00;100332.22;5030150;28;20057;-74
2023/11/21 00:56:29;;;;;;;0.00;0.00;;;;;;;8.47;100.00;100338.72;5010659;28;20056;-80
2023/11/21 00:58:54;;;;;;;0.00;0.00;;;;;;;8.53;100.00;100343.13;5030288;28;20067;-79
2023/11/21 01:01:33;;;;;;;;;;;;;;;;;;;;;
2023/11/21 01:04:02;;;;;;;0.00;0.00;;;;;;;8.56;100.00;100339.91;5034924;28;20045;-80
2023/11/21 01:06:28;;;;;;;0.00;0.00;;;;;;;8.76;100.00;100365.75;5025002;28;20052;-78
2023/11/21 01:08:55;;;;;;;0.00;0.00;;;;;;;8.71;100.00;100349.34;5045151;28;20025;-78
2023/11/21 01:11:23;;;;;;;0.00;0.00;;;;;;;8.86;100.00;100354.97;5022350;28;20121;-79
2023/11/21 01:13:48;;;;;;;0.00;0.00;;;;;;;8.89;100.00;100362.63;5022573;28;20054;-78
2023/11/21 01:16:14;;;;;;;0.00;0.00;;;;;;;9.03;100.00;100367.69;5013867;28;20025;-80
2023/11/21 01:18:42;;;;;;;0.00;0.00;;;;;;;8.99;100.00;100342.00;5031465;28;20036;-79
2023/11/21 01:21:08;;;;;;;0.00;0.00;;;;;;;9.19;100.00;100364.00;5033830;28;20033;-78
2023/11/21 01:23:34;;;;;;;0.00;0.00;;;;;;;9.15;100.00;100351.97;5026922;28;20028;-79
2023/11/21 01:26:00;;;;;;;0.00;0.00;;;;;;;9.20;100.00;100360.22;5020209;28;20080;-79
2023/11/21 01:28:26;;;;;;;0.00;0.00;;;;;;;9.19;100.00;100353.09;5027405;28;20021;-81
2023/11/21 01:30:52;;;;;;;0.00;0.00;;;;;;;9.32;100.00;100362.78;5036040;28;20043;-78
2023/11/21 01:33:28;;;;;;;;;;;;;;;;;;;;;
2023/11/21 01:35:54;;;;;;;0.00;0.00;;;;;;;9.46;100.00;100395.09;5029349;28;20374;-81
2023/11/21 01:38:38;;;;;;;0.00;0.00;;;;;;;9.30;100.00;100370.41;5042991;28;20128;-77
2023/11/21 01:41:04;;;;;;;0.00;0.00;;;;;;;9.30;100.00;100364.94;5046942;28;20072;-77
2023/11/21 01:43:31;;;;;;;0.00;0.00;;;;;;;9.47;100.00;100397.56;5014817;28;20025;-77
2023/11/21 01:45:57;;;;;;;0.00;0.00;;;;;;;9.39;100.00;100387.13;5047236;28;20108;-77
2023/11/21 01:48:24;;;;;;;0.00;0.00;;;;;;;9.38;100.00;100388.22;5050725;28;20078;-78
2023/11/21 01:50:58;;;;;;;0.00;0.00;;;;;;;9.56;100.00;100415.13;5042890;28;20025;-78
2023/11/21 01:53:25;;;;;;;0.00;0.00;;;;;;;9.68;100.00;100430.50;5045124;28;20033;-77
2023/11/21 01:55:51;;;;;;;0.00;0.00;;;;;;;9.66;100.00;100427.22;5050516;28;20060;-75
2023/11/21 01:58:25;;;;;;;0.00;0.00;;;;;;;9.59;100.00;100411.88;5047683;28;20439;-75
2023/11/21 02:00:54;;;;;;;0.00;0.00;;;;;;;9.53;100.00;100410.16;5037400;28;20480;-75
2023/11/21 02:03:27;;;;;;;0.00;0.00;;;;;;;9.64;100.00;100426.63;5034585;28;20044;-75
2023/11/21 02:05:56;;;;;;;0.08;0.08;;;;;;;9.83;100.00;100449.75;5034442;28;20028;-72
2023/11/21 02:08:22;;;;;;;0.00;0.00;;;;;;;9.60;100.00;100408.03;5041215;28;20029;-75
2023/11/21 02:10:49;;;;;;;0.00;0.00;;;;;;;9.90;100.00;100455.81;5025632;28;20032;-75
2023/11/21 02:13:16;;;;;;;0.00;0.00;;;;;;;9.75;100.00;100437.41;5034835;28;20387;-75
2023/11/21 02:15:41;;;;;;;0.00;0.00;;;;;;;9.71;100.00;100429.97;5042762;28;20020;-74
2023/11/21 02:18:10;;;;;;;0.00;0.00;;;;;;;9.80;100.00;100455.75;5024313;28;20037;-73
2023/11/21 02:20:38;;;;;;;0.00;0.00;;;;;;;9.69;100.00;100443.06;5006251;28;20502;-74
2023/11/21 02:23:23;;;;;;;0.00;0.00;;;;;;;9.65;100.00;100452.88;5050394;28;20024;-74
2023/11/21 02:25:53;;;;;;;0.00;0.00;;;;;;;9.60;100.00;100446.25;5048336;28;20031;-75
2023/11/21 02:28:27;;;;;;;0.00;0.00;;;;;;;9.76;100.00;100477.25;5022228;28;20090;-75
2023/11/21 02:31:05;;;;;;;0.10;0.10;;;;;;;9.66;100.00;100468.16;5037645;28;20028;-75
2023/11/21 02:33:33;;;;;;;0.00;0.00;;;;;;;9.68;100.00;100476.91;5006497;28;21031;-74
2023/11/21 02:36:00;;;;;;;0.00;0.00;;;;;;;9.60;100.00;100467.28;5021047;28;20025;-75
2023/11/21 02:38:25;;;;;;;0.00;0.00;;;;;;;9.58;100.00;100464.81;5043670;28;20048;-75
2023/11/21 02:40:51;;;;;;;0.00;0.00;;;;;;;9.67;100.00;100484.28;5041879;28;20489;-74
2023/11/21 02:43:17;;;;;;;0.00;0.00;;;;;;;9.68;100.00;100496.03;5042090;28;20025;-74
2023/11/21 02:45:45;;;;;;;0.00;0.00;;;;;;;9.57;100.00;100476.81;5038614;28;20573;-75
2023/11/21 02:48:13;;;;;;;0.00;0.00;;;;;;;9.61;100.00;100488.88;5044263;28;20087;-75
2023/11/21 02:50:39;;;;;;;0.00;0.00;;;;;;;9.58;100.00;100486.66;5051227;28;20035;-74
2023/11/21 02:53:10;;;;;;;0.00;0.00;;;;;;;9.57;100.00;100484.19;5031227;28;20021;-75
2023/11/21 02:55:36;;;;;;;0.00;0.00;;;;;;;9.77;100.00;100508.16;5028471;28;20028;-75
2023/11/21 02:58:03;;;;;;;0.00;0.00;;;;;;;9.70;100.00;100482.97;5036323;28;20033;-75
2023/11/21 03:00:29;;;;;;;0.00;0.00;;;;;;;9.78;100.00;100490.66;5024845;28;21745;-74
2023/11/21 03:02:56;;;;;;;0.00;0.00;;;;;;;9.75;100.00;100480.25;5037406;28;20124;-75
2023/11/21 03:05:26;;;;;;;0.10;0.10;;;;;;;9.83;100.00;100488.00;5022543;28;20053;-76
2023/11/21 03:07:52;;;;;;;0.00;0.00;;;;;;;9.83;100.00;100474.34;5020665;28;20021;-75
2023/11/21 03:10:17;;;;;;;0.00;0.00;;;;;;;9.88;100.00;100485.28;5045325;28;20382;-75
2023/11/21 03:12:44;;;;;;;0.00;0.00;;;;;;;9.95;100.00;100491.34;5046873;28;20028;-77
2023/11/21 03:15:19;;;;;;;0.00;0.00;;;;;;;9.91;100.00;100490.22;5032012;28;20036;-77
2023/11/21 03:17:49;;;;;;;0.10;0.10;;;;;;;9.86;100.00;100481.19;5051584;28;20079;-75
2023/11/21 03:20:21;;;;;;;0.00;0.00;;;;;;;9.89;100.00;100502.53;5039613;28;20041;-75
2023/11/21 03:22:47;;;;;;;0.00;0.00;;;;;;;9.93;100.00;100496.28;5038596;28;20581;-76
2023/11/21 03:25:20;;;;;;;0.00;0.00;;;;;;;9.86;100.00;100486.66;5033377;28;20052;-76
2023/11/21 03:27:54;;;;;;;0.00;0.00;;;;;;;9.86;100.00;100498.41;5029801;28;20017;-77
2023/11/21 03:30:27;;;;;;;0.00;0.00;;;;;;;10.06;100.00;100524.22;5032176;28;20107;-77
2023/11/21 03:33:19;;;;;;;;;;;;;;;;;;;;;
2023/11/21 03:35:55;;;;;;;;;;;;;;;;;;;;;
2023/11/21 03:38:23;;;;;;;0.00;0.00;;;;;;;10.09;100.00;100540.09;5045252;28;20051;-77
2023/11/21 03:40:50;;;;;;;0.00;0.00;;;;;;;9.92;100.00;100519.19;5040666;28;20546;-76
2023/11/21 03:43:16;;;;;;;0.00;0.00;;;;;;;10.05;100.00;100550.75;5014028;28;20120;-77
2023/11/21 03:45:41;;;;;;;0.00;0.00;;;;;;;9.99;100.00;100557.25;5042080;28;20117;-76
2023/11/21 03:48:07;;;;;;;0.00;0.00;;;;;;;9.95;100.00;100556.09;5048166;28;20017;-76
2023/11/21 03:50:33;;;;;;;0.00;0.00;;;;;;;9.94;100.00;100560.75;5041945;28;20020;-76
2023/11/21 03:53:00;;;;;;;0.00;0.00;;;;;;;9.89;100.00;100552.50;5005418;28;20037;-75
2023/11/21 03:55:26;;;;;;;0.00;0.00;;;;;;;9.97;100.00;100570.31;5022433;28;20025;-77
2023/11/21 03:57:52;;;;;;;0.00;0.00;;;;;;;9.89;100.00;100557.97;5040531;28;20060;-76
2023/11/21 04:00:19;;;;;;;0.00;0.00;;;;;;;10.04;100.00;100587.34;5036751;28;20678;-76
2023/11/21 04:02:45;;;;;;;0.00;0.00;;;;;;;10.03;100.00;100590.31;5030744;28;20063;-76
2023/11/21 04:05:14;;;;;;;0.00;0.00;;;;;;;9.98;100.00;100584.81;5029079;28;20057;-76
2023/11/21 04:07:39;;;;;;;0.00;0.00;;;;;;;9.87;100.00;100572.94;5016781;28;20033;-76
2023/11/21 04:10:08;;;;;;;0.00;0.00;;;;;;;10.07;100.00;100602.41;5040127;28;20368;-75
2023/11/21 04:12:34;;;;;;;0.00;0.00;;;;;;;9.93;100.00;100577.41;5047685;28;20024;-76
2023/11/21 04:15:00;;;;;;;0.00;0.00;;;;;;;9.85;100.00;100556.00;5036436;28;20482;-76
2023/11/21 04:17:25;;;;;;;0.00;0.00;;;;;;;9.96;100.00;100574.97;5013959;28;20029;-76
2023/11/21 04:19:51;;;;;;;0.00;0.00;;;;;;;9.94;100.00;100588.06;5036279;28;20029;-74
2023/11/21 04:22:16;;;;;;;0.00;0.00;;;;;;;9.95;100.00;100595.16;5002901;28;20029;-76
2023/11/21 04:24:41;;;;;;;0.00;0.00;;;;;;;9.99;100.00;100605.56;5020208;28;20101;-75
2023/11/21 04:27:07;;;;;;;0.00;0.00;;;;;;;9.95;100.00;100606.09;5019791;28;20033;-76
2023/11/21 04:29:33;;;;;;;0.00;0.00;;;;;;;10.04;100.00;100608.38;5047832;28;20024;-75
2023/11/21 04:31:58;;;;;;;0.00;0.00;;;;;;;9.72;100.00;100563.50;5024625;28;20460;-75
2023/11/21 04:34:27;;;;;;;0.00;0.00;;;;;;;10.03;100.00;100606.72;5026326;28;20038;-75
2023/11/21 04:36:52;;;;;;;0.00;0.00;;;;;;;9.98;100.00;100603.94;5022366;28;20044;-75
2023/11/21 04:39:17;;;;;;;0.00;0.00;;;;;;;10.06;100.00;100609.78;5022326;28;20550;-76
2023/11/21 04:41:43;;;;;;;0.00;0.00;;;;;;;10.01;100.00;100608.91;5006315;28;20030;-75
2023/11/21 04:44:08;;;;;;;0.00;0.00;;;;;;;10.00;100.00;100623.63;5012607;28;20083;-76
2023/11/21 04:46:34;;;;;;;0.00;0.00;;;;;;;10.03;100.00;100628.56;5009109;28;20075;-76
2023/11/21 04:48:59;;;;;;;0.00;0.00;;;;;;;10.04;100.00;100624.78;5013059;28;20740;-75
2023/11/21 04:51:24;;;;;;;0.00;0.00;;;;;;;10.04;100.00;100630.22;5027525;28;20013;-75
2023/11/21 04:53:50;;;;;;;0.00;0.00;;;;;;;10.00;100.00;100634.56;5027365;28;20350;-75
2023/11/21 04:56:18;;;;;;;0.00;0.00;;;;;;;10.06;100.00;100642.56;5032510;28;20459;-75
2023/11/21 04:58:44;;;;;;;0.00;0.00;;;;;;;10.05;100.00;100653.75;5037855;28;20031;-75
2023/11/21 05:01:09;;;;;;;0.00;0.00;;;;;;;10.04;100.00;100647.44;5026024;28;20034;-75
2023/11/21 05:03:35;;;;;;;0.00;0.00;;;;;;;9.99;100.00;100638.38;5025041;28;20053;-75
2023/11/21 05:06:00;;;;;;;0.00;0.00;;;;;;;10.11;100.00;100659.00;5007903;28;20426;-76
2023/11/21 05:08:26;;;;;;;0.00;0.00;;;;;;;10.09;100.00;100663.06;5018117;28;20037;-75
2023/11/21 05:10:53;;;;;;;0.00;0.00;;;;;;;10.05;100.00;100659.22;5024351;28;20117;-75
2023/11/21 05:13:19;;;;;;;0.00;0.00;;;;;;;10.12;100.00;100681.69;5007875;28;20048;-75
2023/11/21 05:15:45;;;;;;;0.00;0.00;;;;;;;10.06;100.00;100682.69;5022852;28;20021;-75
2023/11/21 05:18:11;;;;;;;0.00;0.00;;;;;;;10.05;100.00;100686.53;5037543;28;20028;-77
2023/11/21 05:20:38;;;;;;;0.00;0.00;;;;;;;9.99;100.00;100687.53;5021369;28;20022;-76
2023/11/21 05:23:03;;;;;;;0.00;0.00;;;;;;;9.93;100.00;100690.22;5021429;28;20044;-76
2023/11/21 05:25:28;;;;;;;0.00;0.00;;;;;;;9.94;100.00;100710.16;5032565;28;20464;-77
2023/11/21 05:28:01;;;;;;;0.00;0.00;;;;;;;9.94;100.00;100708.28;5044046;28;20476;-76
2023/11/21 05:30:26;;;;;;;0.00;0.00;;;;;;;9.95;100.00;100715.38;5019932;28;20033;-76
2023/11/21 05:32:51;;;;;;;0.00;0.00;;;;;;;9.85;100.00;100693.41;5023405;28;20032;-76
2023/11/21 05:35:17;;;;;;;0.00;0.00;;;;;;;9.85;100.00;100698.84;5013262;28;20422;-77
2023/11/21 05:37:43;;;;;;;0.00;0.00;;;;;;;9.79;100.00;100699.88;5027690;28;20056;-76
2023/11/21 05:40:09;;;;;;;0.00;0.00;;;;;;;9.91;100.00;100716.97;5021518;28;20033;-77
2023/11/21 05:42:49;;;;;;;0.00;0.00;;;;;;;9.92;100.00;100720.53;5037461;28;20174;-76
2023/11/21 05:45:15;;;;;;;0.00;0.00;;;;;;;9.89;100.00;100710.94;5025078;28;20102;-77
2023/11/21 05:47:45;;;;;;;0.00;0.00;;;;;;;9.98;100.00;100729.63;5026632;28;20041;-76
2023/11/21 05:50:14;;;;;;;0.00;0.00;;;;;;;10.03;100.00;100744.16;5039623;28;20107;-78
2023/11/21 05:52:47;;;;;;;0.00;0.00;;;;;;;9.86;100.00;100719.63;5038322;28;20448;-77
2023/11/21 05:55:16;;;;;;;0.00;0.00;;;;;;;10.08;100.00;100751.59;5039043;28;20032;-77
2023/11/21 05:57:43;;;;;;;0.00;0.00;;;;;;;10.01;100.00;100742.78;5048688;28;20025;-77
2023/11/21 06:00:27;;;;;;;0.00;0.00;;;;;;;9.96;100.00;100738.88;5021526;28;20669;-77
2023/11/21 06:02:53;;;;;;;0.00;0.00;;;;;;;9.96;100.00;100755.28;5039271;28;20021;-77
2023/11/21 06:05:23;;;;;;;0.00;0.00;;;;;;;9.91;100.00;100751.66;5036074;28;20295;-77
2023/11/21 06:07:49;;;;;;;0.00;0.00;;;;;;;9.90;100.00;100761.75;5030425;28;20039;-79
2023/11/21 06:10:17;;;;;;;0.00;0.00;;;;;;;9.88;100.00;100769.38;5038028;28;20021;-77
2023/11/21 06:12:43;;;;;;;0.00;0.00;;;;;;;9.85;100.00;100780.00;5037721;28;20025;-78
2023/11/21 06:15:13;;;;;;;0.00;0.00;;;;;;;9.68;100.00;100774.56;5043352;28;20110;-78
2023/11/21 06:17:40;;;;;;;0.00;0.00;;;;;;;9.59;100.00;100783.19;5041891;28;20053;-75
2023/11/21 06:20:14;;;;;;;0.00;0.00;;;;;;;9.45;100.00;100787.34;5048597;28;20033;-76
2023/11/21 06:22:41;;;;;;;0.00;0.00;;;;;;;9.34;100.00;100791.81;5045609;28;20033;-77
2023/11/21 06:25:08;;;;;;;0.00;0.00;;;;;;;9.24;100.00;100794.38;5023941;28;20025;-77
2023/11/21 06:27:38;;;;;;;0.00;0.00;;;;;;;9.21;100.00;100798.44;5022188;28;20487;-77
2023/11/21 06:30:06;;;;;;;0.00;0.00;;;;;;;8.92;100.00;100759.47;5038635;28;20079;-75
2023/11/21 06:32:32;;;;;;;0.00;0.00;;;;;;;9.07;100.00;100810.75;5029024;28;20018;-75
2023/11/21 06:35:01;;;;;;;0.00;0.00;;;;;;;9.03;100.00;100801.41;5022837;28;20086;-76
2023/11/21 06:37:27;;;;;;;0.00;0.00;;;;;;;9.04;100.00;100803.88;5032725;28;20060;-76
2023/11/21 06:39:53;;;;;;;0.00;0.00;;;;;;;9.06;100.00;100817.28;5052157;28;20587;-75
2023/11/21 06:42:21;;;;;;;0.00;0.00;;;;;;;9.07;100.00;100818.94;5033996;28;20686;-76
2023/11/21 06:44:48;;;;;;;0.00;0.00;;;;;;;9.01;100.00;100811.72;5043297;28;20099;-77
2023/11/21 06:47:14;;;;;;;0.00;0.00;;;;;;;9.04;100.00;100824.88;5021684;28;20029;-76
2023/11/21 06:49:39;;;;;;;0.00;0.00;;;;;;;9.01;100.00;100809.81;5044237;28;20023;-76
2023/11/21 06:52:05;;;;;;;0.00;0.00;;;;;;;8.96;100.00;100811.63;5042797;28;20017;-78
2023/11/21 06:54:32;;;;;;;0.00;0.00;;;;;;;8.97;100.00;100825.03;5035791;28;21724;-76
2023/11/21 06:56:58;;;;;;;0.00;0.00;;;;;;;8.91;100.00;100809.66;5042787;28;20032;-76
2023/11/21 06:59:25;;;;;;;0.00;0.00;;;;;;;9.06;100.00;100839.09;5034523;28;20043;-76
2023/11/21 07:01:51;;;;;;;0.00;0.00;;;;;;;9.01;100.00;100825.34;5037400;28;20033;-75
2023/11/21 07:04:16;;;;;;;0.00;0.00;;;;;;;9.03;100.00;100825.94;5024672;28;20537;-76
2023/11/21 07:06:43;;;;;;;0.00;0.00;;;;;;;9.00;99.29;100838.16;5015942;28;20107;-76
2023/11/21 07:09:09;;;;;;;0.00;0.00;;;;;;;9.07;98.66;100857.94;5018548;28;20034;-76
2023/11/21 07:11:38;;;;;;;0.00;0.00;;;;;;;9.17;98.11;100873.69;5039110;28;20025;-75
2023/11/21 07:14:07;;;;;;;0.00;0.00;;;;;;;9.18;97.81;100885.41;5020920;28;20067;-74
2023/11/21 07:16:38;;;;;;;0.00;0.00;;;;;;;9.07;97.58;100873.50;5037084;28;20045;-77
2023/11/21 07:19:08;;;;;;;0.00;0.00;;;;;;;9.12;96.67;100891.84;5027425;28;20041;-75
2023/11/21 07:21:56;;;;;;;0.00;0.00;;;;;;;9.00;96.19;100895.47;5028988;28;20025;-75
2023/11/21 07:24:27;;;;;;;0.00;0.00;;;;;;;8.95;95.46;100898.09;5020792;28;20090;-76
2023/11/21 07:26:56;;;;;;;0.00;0.00;;;;;;;8.74;94.90;100869.59;5038060;28;20013;-74
2023/11/21 07:29:31;;;;;;;0.00;0.00;;;;;;;8.90;94.57;100895.25;5032692;28;20032;-75
2023/11/21 07:32:04;;;;;;;0.00;0.00;;;;;;;8.92;93.75;100893.09;5021407;28;20079;-74
2023/11/21 07:34:40;;;;;;;0.00;0.00;;;;;;;8.97;93.92;100901.41;5039363;28;20537;-76
2023/11/21 07:37:05;;;;;;;0.00;0.00;;;;;;;8.94;92.88;100907.34;5028251;28;20056;-77
2023/11/21 07:39:31;;;;;;;0.00;0.00;;;;;;;9.16;93.05;100940.22;5031408;28;20063;-77
2023/11/21 07:41:57;;;;;;;0.00;0.00;;;;;;;9.07;92.49;100931.59;5044479;28;20426;-76
2023/11/21 07:44:26;;;;;;;0.00;0.00;;;;;;;9.07;92.22;100934.34;5031479;28;20052;-76
2023/11/21 07:46:51;;;;;;;0.00;0.00;;;;;;;9.19;91.93;100956.09;5037907;28;20025;-76
2023/11/21 07:49:20;;;;;;;0.00;0.00;;;;;;;9.16;92.02;100948.41;5034506;28;20033;-74
2023/11/21 07:51:45;;;;;;;0.00;0.00;;;;;;;9.19;91.74;100945.19;5044304;28;20690;-77
2023/11/21 07:54:14;;;;;;;0.00;0.00;;;;;;;9.14;91.51;100944.25;5034129;28;20025;-77
2023/11/21 07:56:39;;;;;;;0.00;0.00;;;;;;;9.24;91.50;100964.41;5043831;28;20029;-74
2023/11/21 07:59:12;;;;;;;0.00;0.00;;;;;;;9.09;90.85;100947.72;5009693;28;20029;-77
2023/11/21 08:01:37;;;;;;;0.00;0.00;;;;;;;9.10;90.67;100949.41;5037550;28;20448;-74
2023/11/21 08:04:03;;;;;;;0.00;0.00;;;;;;;9.16;90.16;100970.25;5032112;28;20097;-73
2023/11/21 08:06:32;;;;;;;0.00;0.00;;;;;;;9.17;90.13;100966.44;5038924;28;20033;-73
2023/11/21 08:09:04;;;;;;;0.00;0.00;;;;;;;9.17;89.85;100977.38;5023973;28;20036;-73
2023/11/21 08:11:31;;;;;;;0.00;0.00;;;;;;;9.17;90.12;100971.91;5018017;28;20052;-72
2023/11/21 08:13:57;;;;;;;0.00;0.00;;;;;;;9.17;89.85;100977.38;5041736;28;20379;-73
2023/11/21 08:16:23;;;;;;;0.00;0.00;;;;;;;9.13;90.09;100973.47;5022385;28;20025;-74
2023/11/21 08:18:49;;;;;;;0.00;0.00;;;;;;;9.18;89.75;100975.47;5022194;28;20024;-72
2023/11/21 08:21:15;;;;;;;0.00;0.00;;;;;;;9.21;89.36;100983.16;5032276;28;20541;-73
2023/11/21 08:23:40;;;;;;;0.00;0.00;;;;;;;9.23;89.62;100979.13;5022623;28;21039;-74
2023/11/21 08:26:06;;;;;;;0.00;0.00;;;;;;;9.36;89.41;100985.34;5021583;28;20053;-72
2023/11/21 08:28:31;;;;;;;0.00;0.00;;;;;;;9.35;89.71;100986.44;5034962;28;20117;-74
2023/11/21 08:30:57;;;;;;;0.00;0.00;;;;;;;9.44;89.19;100984.97;5018250;28;20532;-73
2023/11/21 08:33:25;;;;;;;0.00;0.00;;;;;;;9.43;89.50;100994.22;5045081;28;20418;-72
2023/11/21 08:35:50;;;;;;;0.00;0.00;;;;;;;9.41;89.22;100993.63;5031873;28;20478;-73
2023/11/21 08:38:17;;;;;;;0.00;0.00;;;;;;;9.46;89.15;101010.09;4995338;28;20033;-73
2023/11/21 08:40:43;;;;;;;0.00;0.00;;;;;;;9.53;89.21;101013.50;5015129;28;20121;-73
2023/11/21 08:43:08;;;;;;;0.00;0.00;;;;;;;9.55;89.04;101014.13;5023812;28;20093;-74
2023/11/21 08:45:34;;;;;;;0.00;0.00;;;;;;;9.58;88.76;101021.81;5027859;28;21132;-73
2023/11/21 08:48:03;;;;;;;0.00;0.00;;;;;;;9.63;88.15;101028.44;5012757;28;20033;-73
2023/11/21 08:50:29;;;;;;;0.00;0.00;;;;;;;9.68;88.14;101023.06;5029208;28;20104;-75
2023/11/21 08:52:55;;;;;;;0.00;0.00;;;;;;;9.73;88.15;101029.44;4998653;28;20120;-72
2023/11/21 08:55:20;;;;;;;0.00;0.00;;;;;;;9.79;87.66;101038.56;5024508;28;20045;-73
2023/11/21 08:57:49;;;;;;;0.00;0.00;;;;;;;9.77;87.36;101030.63;5028320;28;20105;-73
2023/11/21 09:00:16;;;;;;;0.00;0.00;;;;;;;9.91;87.32;101031.13;5021247;28;20033;-73
2023/11/21 09:02:43;;;;;;;0.00;0.00;;;;;;;10.01;86.89;101040.59;5033215;28;20088;-73
2023/11/21 09:05:10;;;;;;;0.00;0.00;;;;;;;10.04;86.96;101048.28;5034382;28;21540;-72
2023/11/21 09:07:40;;;;;;;0.00;0.00;;;;;;;9.98;86.63;101035.63;5029864;28;20030;-72
2023/11/21 09:10:07;;;;;;;0.00;0.00;;;;;;;10.02;86.38;101042.25;5013828;28;20390;-73
2023/11/21 09:12:34;;;;;;;0.00;0.00;;;;;;;9.79;86.24;101016.72;5050073;28;20017;-73
2023/11/21 09:15:09;;;;;;;0.00;0.00;;;;;;;9.94;86.92;101038.84;4991502;28;20025;-73
2023/11/21 09:17:35;;;;;;;0.00;0.00;;;;;;;9.99;86.36;101039.97;5009297;28;20079;-73
2023/11/21 09:20:01;;;;;;;0.00;0.00;;;;;;;10.07;86.26;101056.81;5046569;28;20029;-73
2023/11/21 09:22:27;;;;;;;0.00;0.00;;;;;;;10.03;85.98;101036.53;5037667;28;20020;-73
2023/11/21 09:24:52;;;;;;;0.00;0.00;;;;;;;10.05;85.64;101041.75;5025388;28;20071;-73
2023/11/21 09:27:18;;;;;;;0.00;0.00;;;;;;;10.06;86.15;101037.91;5018769;28;20040;-72
2023/11/21 09:29:43;;;;;;;0.00;0.00;;;;;;;10.19;85.65;101064.94;5030557;28;20048;-73
2023/11/21 09:32:11;;;;;;;0.00;0.00;;;;;;;10.18;85.29;101057.81;5025991;28;20538;-73
2023/11/21 09:34:38;;;;;;;0.00;0.00;;;;;;;10.22;84.93;101064.44;5016618;28;20792;-73
2023/11/21 09:37:06;;;;;;;0.00;0.00;;;;;;;10.24;85.68;101062.28;5040344;28;20036;-74
2023/11/21 09:39:35;;;;;;;0.10;0.10;;;;;;;10.28;85.34;101068.09;5033723;28;20087;-72
2023/11/21 09:42:05;;;;;;;0.00;0.00;;;;;;;10.33;84.77;101073.63;5030431;28;20048;-74
2023/11/21 09:45:05;;;;;;;0.00;0.00;;;;;;;10.32;85.45;101085.63;5041041;28;20021;-73
2023/11/21 09:47:35;;;;;;;0.00;0.00;;;;;;;10.22;85.13;101069.91;5036698;28;20109;-73
2023/11/21 09:50:02;;;;;;;0.00;0.00;;;;;;;10.27;85.35;101078.19;5026243;28;20040;-73
2023/11/21 09:52:28;;;;;;;0.00;0.00;;;;;;;10.33;84.85;101090.03;5031240;28;21035;-73
2023/11/21 09:54:57;;;;;;;0.00;0.00;;;;;;;10.34;85.60;101090.88;5027114;28;20037;-73
2023/11/21 09:57:23;;;;;;;0.00;0.00;;;;;;;10.35;85.59;101098.03;5025371;28;20018;-72
2023/11/21 09:59:58;;;;;;;0.00;0.00;;;;;;;10.37;85.39;101106.81;5034634;28;20812;-74
2023/11/21 10:02:32;;;;;;;0.00;0.00;;;;;;;10.38;85.01;101108.47;5041306;28;20082;-74
2023/11/21 10:04:59;;;;;;;0.00;0.00;;;;;;;10.25;85.47;101091.28;5031352;28;20094;-73
2023/11/21 10:07:26;;;;;;;0.00;0.00;;;;;;;10.24;85.60;101088.81;5040417;28;20060;-74
2023/11/21 10:09:53;;;;;;;0.00;0.00;;;;;;;10.27;86.72;101100.06;5036770;28;20036;-74
2023/11/21 10:12:21;;;;;;;0.00;0.00;;;;;;;10.19;86.60;101095.00;5038359;28;20070;-74
2023/11/21 10:14:54;;;;;;;0.00;0.00;;;;;;;10.16;86.88;101092.75;5026984;28;20045;-74
2023/11/21 10:17:20;;;;;;;0.00;0.00;;;;;;;10.04;86.76;101078.34;5038433;28;20036;-73
2023/11/21 10:19:50;;;;;;;0.00;0.00;;;;;;;10.25;87.21;101121.34;5038513;28;20117;-72
2023/11/21 10:22:16;;;;;;;0.00;0.00;;;;;;;10.24;87.51;101122.41;5009127;28;20026;-73
2023/11/21 10:24:43;;;;;;;0.00;0.00;;;;;;;10.20;86.99;101124.00;5015682;28;20341;-74
2023/11/21 10:27:09;;;;;;;0.00;0.00;;;;;;;10.21;86.69;101124.84;5036891;28;20117;-73
2023/11/21 10:29:35;;;;;;;0.00;0.00;;;;;;;10.26;86.95;101124.91;5022374;28;20032;-74
2023/11/21 10:32:05;;;;;;;0.00;0.00;;;;;;;10.26;87.06;101125.72;5003822;28;20025;-74
2023/11/21 10:34:31;;;;;;;0.00;0.00;;;;;;;10.22;86.98;101129.19;5038157;28;20103;-73
2023/11/21 10:36:57;;;;;;;0.00;0.00;;;;;;;10.31;87.68;101138.69;4999885;28;20029;-73
2023/11/21 10:39:27;;;;;;;0.00;0.00;;;;;;;10.33;87.78;101130.22;5007012;28;20059;-74
2023/11/21 10:41:54;;;;;;;0.00;0.00;;;;;;;10.37;88.06;101140.44;5025434;28;20029;-74
2023/11/21 10:44:21;;;;;;;0.00;0.00;;;;;;;10.40;88.04;101145.41;5038899;28;20455;-73
2023/11/21 10:46:56;;;;;;;0.00;0.00;;;;;;;10.43;88.09;101144.09;5040442;28;20513;-74
2023/11/21 10:49:25;;;;;;;0.00;0.00;;;;;;;10.40;88.74;101144.59;5022636;28;20029;-73
2023/11/21 10:51:53;;;;;;;0.00;0.00;;;;;;;10.40;88.98;101144.59;5042356;28;20021;-74
2023/11/21 10:54:20;;;;;;;0.00;0.00;;;;;;;10.46;89.31;101147.16;5034039;28;20036;-74
2023/11/21 10:56:50;;;;;;;0.00;0.00;;;;;;;10.44;89.59;101143.84;5029884;28;20401;-74
2023/11/21 10:59:16;;;;;;;0.00;0.00;;;;;;;10.58;89.47;101149.81;5028777;28;20029;-73
2023/11/21 11:01:44;;;;;;;0.05;0.05;;;;;;;10.62;89.25;101148.25;5034549;28;20025;-73
2023/11/21 11:04:16;;;;;;;0.00;0.00;;;;;;;10.52;90.23;101142.59;5033166;28;20669;-74
2023/11/21 11:06:43;;;;;;;0.00;0.00;;;;;;;10.44;90.92;101143.00;5011531;28;20028;-73
2023/11/21 11:09:15;;;;;;;0.10;0.10;;;;;;;10.51;91.18;101146.41;5034669;28;20025;-75
2023/11/21 11:11:44;;;;;;;0.00;0.00;;;;;;;10.53;91.04;101136.06;5054846;28;20462;-73
2023/11/21 11:14:13;;;;;;;0.00;0.00;;;;;;;10.61;91.52;101135.63;5024339;28;20040;-73
2023/11/21 11:16:41;;;;;;;0.00;0.00;;;;;;;10.76;91.61;101145.16;5022972;28;20026;-73
2023/11/21 11:19:07;;;;;;;0.00;0.00;;;;;;;10.78;91.56;101132.91;5035087;28;20029;-73
2023/11/21 11:21:51;;;;;;;0.00;0.00;;;;;;;10.96;91.83;101150.13;5021583;28;20025;-74
2023/11/21 11:24:46;;;;;;;0.00;0.00;;;;;;;11.05;91.66;101150.53;5031147;28;20025;-73
2023/11/21 11:27:37;;;;;;;0.00;0.00;;;;;;;11.09;91.50;101152.50;5034360;28;20037;-75
2023/11/21 11:30:21;;;;;;;0.00;0.00;;;;;;;11.40;90.60;101160.31;5036952;28;20032;-72
2023/11/21 11:33:11;;;;;;;0.00;0.00;;;;;;;11.57;90.18;101157.53;5044380;28;20024;-74
2023/11/21 11:35:55;;;;;;;0.00;0.00;;;;;;;11.59;89.41;101153.44;5029226;28;20029;-73
2023/11/21 11:38:23;;;;;;;0.00;0.00;;;;;;;11.64;89.27;101149.97;5039664;28;20029;-73